createdAt,value
2017-05-26T00:01:02.806Z,101732.45
2017-05-26T00:03:30.357Z,101735.30
2017-05-26T00:05:57.941Z,101738.06
2017-05-26T00:08:25.515Z,101738.23
2017-05-26T00:10:53.080Z,101731.23
2017-05-26T00:13:20.615Z,101727.55
2017-05-26T00:15:48.156Z,101723.98
2017-05-26T00:18:15.714Z,101725.33
2017-05-26T00:20:43.237Z,101725.30
2017-05-26T00:23:10.815Z,101725.91
2017-05-26T00:25:38.336Z,101721.23
2017-05-26T00:28:05.868Z,101720.22
2017-05-26T00:30:33.414Z,101725.52
2017-05-26T00:33:00.936Z,101720.56
2017-05-26T00:35:28.544Z,101724.98
2017-05-26T00:37:56.139Z,101724.95
2017-05-26T00:40:23.724Z,101719.64
2017-05-26T00:42:51.284Z,101719.35
2017-05-26T00:45:18.809Z,101719.05
2017-05-26T00:47:46.379Z,101720.88
2017-05-26T00:50:13.921Z,101716.38
2017-05-26T00:52:41.453Z,101718.88
2017-05-26T00:55:09.036Z,101716.34
2017-05-26T00:57:36.565Z,101722.18
2017-05-26T01:00:04.152Z,101714.81
2017-05-26T01:02:31.673Z,101716.53
2017-05-26T01:04:59.253Z,101717.41
2017-05-26T01:07:26.780Z,101718.14
2017-05-26T01:09:54.309Z,101713.78
2017-05-26T01:12:21.892Z,101713.53
2017-05-26T01:14:49.410Z,101717.61
2017-05-26T01:17:16.965Z,101716.27
2017-05-26T01:19:44.503Z,101717.06
2017-05-26T01:22:12.204Z,101718.12
2017-05-26T01:24:39.824Z,101716.73
2017-05-26T01:27:07.404Z,101712.09
2017-05-26T01:29:35.039Z,101716.23
2017-05-26T01:32:02.920Z,101707.02
2017-05-26T01:34:30.879Z,101715.81
2017-05-26T01:36:58.412Z,101706.73
2017-05-26T01:39:26.046Z,101714.59
2017-05-26T01:41:53.611Z,101708.77
2017-05-26T01:44:21.152Z,101718.06
2017-05-26T01:46:48.801Z,101718.05
2017-05-26T01:49:16.367Z,101722.36
2017-05-26T01:51:43.913Z,101725.96
2017-05-26T01:54:11.471Z,101720.83
2017-05-26T01:56:39.014Z,101728.06
2017-05-26T01:59:06.608Z,101719.39
2017-05-26T02:01:34.157Z,101718.96
2017-05-26T02:04:01.691Z,101720.08
2017-05-26T02:06:29.295Z,101722.18
2017-05-26T02:08:56.836Z,101721.80
2017-05-26T02:11:24.428Z,101724.58
2017-05-26T02:13:51.955Z,101728.08
2017-05-26T02:16:19.500Z,101723.43
2017-05-26T02:18:47.053Z,101725.37
2017-05-26T02:21:14.589Z,101725.97
2017-05-26T02:23:42.175Z,101722.64
2017-05-26T02:26:09.696Z,101726.22
2017-05-26T02:28:37.248Z,101730.41
2017-05-26T02:31:04.884Z,101730.45
2017-05-26T02:33:32.425Z,101724.80
2017-05-26T02:36:00.208Z,101730.20
2017-05-26T02:38:27.792Z,101728.98
2017-05-26T02:40:55.333Z,101736.97
2017-05-26T02:43:22.916Z,101736.13
2017-05-26T02:45:50.465Z,101735.47
2017-05-26T02:48:18.024Z,101734.77
2017-05-26T02:50:45.592Z,101730.31
2017-05-26T02:53:13.121Z,101736.52
2017-05-26T02:55:40.717Z,101737.61
2017-05-26T02:58:08.271Z,101742.98
2017-05-26T03:00:35.852Z,101742.88
2017-05-26T03:03:03.438Z,101742.62
2017-05-26T03:05:31.033Z,101743.27
2017-05-26T03:07:58.631Z,101741.39
2017-05-26T03:10:26.390Z,101743.70
2017-05-26T03:12:53.973Z,101749.63
2017-05-26T03:15:21.511Z,101747.51
2017-05-26T03:17:49.089Z,101747.23
2017-05-26T03:20:16.627Z,101739.67
2017-05-26T03:22:44.369Z,101748.55
2017-05-26T03:25:11.897Z,101744.77
2017-05-26T03:27:39.428Z,101744.49
2017-05-26T03:30:07.065Z,101744.08
2017-05-26T03:32:34.608Z,101746.50
2017-05-26T03:35:02.195Z,101749.25
2017-05-26T03:37:29.728Z,101752.09
2017-05-26T03:39:57.260Z,101750.98
2017-05-26T03:42:24.833Z,101751.37
2017-05-26T03:44:52.395Z,101756.52
2017-05-26T03:47:20.242Z,101757.02
2017-05-26T03:49:47.793Z,101757.55
2017-05-26T03:52:15.345Z,101758.10
2017-05-26T03:54:42.911Z,101752.42
2017-05-26T03:57:10.459Z,101753.66
2017-05-26T03:59:38.094Z,101749.44
2017-05-26T04:02:05.640Z,101753.71
2017-05-26T04:04:33.318Z,101757.68
2017-05-26T04:07:00.853Z,101753.08
2017-05-26T04:09:28.420Z,101758.84
2017-05-26T04:11:55.984Z,101757.36
2017-05-26T04:14:23.526Z,101757.38
2017-05-26T04:16:51.200Z,101755.37
2017-05-26T04:19:18.728Z,101753.92
2017-05-26T04:21:46.276Z,101755.21
2017-05-26T04:24:13.845Z,101760.44
2017-05-26T04:26:41.439Z,101763.64
2017-05-26T04:29:09.084Z,101766.50
2017-05-26T04:31:36.660Z,101759.36
2017-05-26T04:34:04.219Z,101760.09
2017-05-26T04:36:31.764Z,101756.13
2017-05-26T04:38:59.351Z,101758.81
2017-05-26T04:41:26.881Z,101766.50
2017-05-26T04:43:54.420Z,101760.71
2017-05-26T04:46:22.029Z,101765.34
2017-05-26T04:48:49.563Z,101766.44
2017-05-26T04:51:17.144Z,101765.33
2017-05-26T04:53:44.724Z,101759.19
2017-05-26T04:56:12.376Z,101763.11
2017-05-26T04:58:39.934Z,101767.85
2017-05-26T05:01:07.473Z,101767.81
2017-05-26T05:03:35.068Z,101768.22
2017-05-26T05:06:02.614Z,101770.80
2017-05-26T05:08:30.213Z,101766.06
2017-05-26T05:10:57.807Z,101775.30
2017-05-26T05:13:25.411Z,101769.59
2017-05-26T05:15:52.983Z,101773.17
2017-05-26T05:18:20.633Z,101770.70
2017-05-26T05:20:48.314Z,101778.69
2017-05-26T05:23:15.849Z,101779.62
2017-05-26T05:25:43.405Z,101777.03
2017-05-26T05:28:11.025Z,101775.18
2017-05-26T05:30:38.559Z,101781.70
2017-05-26T05:33:06.123Z,101775.44
2017-05-26T05:35:33.694Z,101779.34
2017-05-26T05:38:01.246Z,101780.02
2017-05-26T05:40:28.784Z,101777.30
2017-05-26T05:42:56.380Z,101775.78
2017-05-26T05:45:23.940Z,101778.05
2017-05-26T05:47:51.470Z,101774.54
2017-05-26T05:50:19.055Z,101780.97
2017-05-26T05:52:46.604Z,101782.02
2017-05-26T05:55:14.144Z,101785.14
2017-05-26T05:57:41.672Z,101777.61
2017-05-26T06:00:09.222Z,101782.44
2017-05-26T06:02:36.763Z,101787.41
2017-05-26T06:05:04.315Z,101782.44
2017-05-26T06:07:31.862Z,101788.18
2017-05-26T06:09:59.452Z,101788.52
2017-05-26T06:12:26.972Z,101793.48
2017-05-26T06:14:54.487Z,101786.58
2017-05-26T06:17:22.035Z,101791.83
2017-05-26T06:19:49.575Z,101793.16
2017-05-26T06:22:17.144Z,101791.45
2017-05-26T06:24:44.699Z,101805.75
2017-05-26T06:27:12.236Z,101803.49
2017-05-26T06:29:39.802Z,101797.59
2017-05-26T06:32:07.433Z,101798.48
2017-05-26T06:34:34.952Z,101803.33
2017-05-26T06:37:02.492Z,101801.92
2017-05-26T06:39:30.032Z,101797.06
2017-05-26T06:41:57.580Z,101805.85
2017-05-26T06:44:25.132Z,101799.70
2017-05-26T06:46:52.700Z,101800.75
2017-05-26T06:49:20.231Z,101800.88
2017-05-26T06:51:47.780Z,101802.89
2017-05-26T06:54:15.308Z,101801.92
2017-05-26T06:56:42.876Z,101798.57
2017-05-26T06:59:10.429Z,101803.08
2017-05-26T07:01:37.983Z,101800.05
2017-05-26T07:04:05.532Z,101804.92
2017-05-26T07:06:33.059Z,101805.34
2017-05-26T07:09:00.656Z,101809.72
2017-05-26T07:11:28.201Z,101803.87
2017-05-26T07:13:55.752Z,101802.90
2017-05-26T07:16:23.311Z,101800.80
2017-05-26T07:18:50.849Z,101799.45
2017-05-26T07:21:18.422Z,101806.33
2017-05-26T07:23:45.946Z,101794.81
2017-05-26T07:26:13.515Z,101803.59
2017-05-26T07:28:41.061Z,101805.33
2017-05-26T07:31:08.596Z,101797.23
2017-05-26T07:33:36.252Z,101808.02
2017-05-26T07:36:03.784Z,101806.36
2017-05-26T07:38:31.342Z,101806.19
2017-05-26T07:40:58.892Z,101800.42
2017-05-26T07:43:26.700Z,101794.11
2017-05-26T07:45:54.228Z,101792.23
2017-05-26T07:48:21.769Z,101791.34
2017-05-26T07:50:49.337Z,101789.48
2017-05-26T07:53:16.873Z,101783.75
2017-05-26T07:55:44.432Z,101782.52
2017-05-26T07:58:11.969Z,101777.59
2017-05-26T08:00:39.561Z,101775.03
2017-05-26T08:03:07.095Z,101777.53
2017-05-26T08:05:34.624Z,101777.16
2017-05-26T08:08:02.190Z,101768.13
2017-05-26T08:10:29.732Z,101772.28
2017-05-26T08:12:57.311Z,101767.22
2017-05-26T08:15:24.834Z,101770.51
2017-05-26T08:17:52.449Z,101769.92
2017-05-26T08:20:20.025Z,101772.95
2017-05-26T08:22:47.556Z,101771.84
2017-05-26T08:25:15.128Z,101768.97
2017-05-26T08:27:42.660Z,101767.58
2017-05-26T08:30:10.249Z,101755.73
2017-05-26T08:32:37.793Z,101758.25
2017-05-26T08:35:05.372Z,101747.79
2017-05-26T08:37:32.956Z,101752.69
2017-05-26T08:40:00.483Z,101746.02
2017-05-26T08:42:28.041Z,101749.44
2017-05-26T08:44:55.564Z,101750.52
2017-05-26T08:47:23.115Z,101748.18
2017-05-26T08:49:50.666Z,101742.63
2017-05-26T08:52:18.241Z,101744.52
2017-05-26T08:54:45.775Z,101744.36
2017-05-26T08:57:13.307Z,101741.69
2017-05-26T08:59:40.875Z,101733.52
2017-05-26T09:02:08.897Z,101734.19
2017-05-26T09:04:36.595Z,101730.38
2017-05-26T09:07:04.156Z,101723.16
2017-05-26T09:09:31.708Z,101721.22
2017-05-26T09:11:59.352Z,101720.11
2017-05-26T09:14:26.915Z,101715.97
2017-05-26T09:16:54.613Z,101722.28
2017-05-26T09:19:24.284Z,101721.47
2017-05-26T09:21:51.932Z,101709.95
2017-05-26T09:24:19.510Z,101711.67
2017-05-26T09:26:47.060Z,101716.69
2017-05-26T09:29:14.590Z,101708.92
2017-05-26T09:31:42.212Z,101711.91
2017-05-26T09:34:09.739Z,101714.44
2017-05-26T09:36:37.296Z,101712.70
2017-05-26T09:39:04.803Z,101707.97
2017-05-26T09:41:32.388Z,101707.22
2017-05-26T09:43:59.915Z,101706.84
2017-05-26T09:46:27.485Z,101704.52
2017-05-26T09:48:55.020Z,101701.75
2017-05-26T09:51:22.695Z,101698.68
2017-05-26T09:53:50.683Z,101693.50
2017-05-26T09:56:18.220Z,101692.25
2017-05-26T09:58:45.807Z,101692.06
2017-05-26T10:01:13.368Z,101692.75
2017-05-26T10:03:40.905Z,101687.70
2017-05-26T10:06:08.490Z,101686.89
2017-05-26T10:08:36.045Z,101685.47
2017-05-26T10:11:03.618Z,101684.28
2017-05-26T10:13:31.193Z,101681.58
2017-05-26T10:15:58.781Z,101679.12
2017-05-26T10:18:26.364Z,101682.03
2017-05-26T10:20:53.947Z,101679.02
2017-05-26T10:23:21.525Z,101679.27
2017-05-26T10:25:49.053Z,101679.81
2017-05-26T10:28:16.648Z,101680.69
2017-05-26T10:30:44.189Z,101679.92
2017-05-26T10:33:11.771Z,101667.23
2017-05-26T10:35:39.736Z,101665.79
2017-05-26T10:38:07.262Z,101664.57
2017-05-26T10:40:34.787Z,101662.82
2017-05-26T10:43:02.345Z,101658.97
2017-05-26T10:45:29.865Z,101658.27
2017-05-26T10:47:57.453Z,101652.03
2017-05-26T10:50:25.024Z,101647.66
2017-05-26T10:52:52.620Z,101645.16
2017-05-26T10:55:20.154Z,101644.66
2017-05-26T10:57:47.696Z,101643.22
2017-05-26T11:00:15.270Z,101639.59
2017-05-26T11:02:42.796Z,101633.96
2017-05-26T11:05:10.325Z,101629.73
2017-05-26T11:07:37.896Z,101625.31
2017-05-26T11:10:05.436Z,101632.18
2017-05-26T11:12:33.018Z,101627.17
2017-05-26T11:15:00.539Z,101625.33
2017-05-26T11:17:28.105Z,101607.63
2017-05-26T11:19:55.673Z,101597.75
2017-05-26T11:22:23.229Z,101597.66
2017-05-26T11:24:50.784Z,101592.08
2017-05-26T11:27:18.316Z,101587.48
2017-05-26T11:29:45.948Z,101591.36
2017-05-26T11:32:13.495Z,101595.62
2017-05-26T11:34:41.042Z,101601.88
2017-05-26T11:37:08.651Z,101599.28
2017-05-26T11:39:36.189Z,101591.78
2017-05-26T11:42:03.738Z,101588.53
2017-05-26T11:44:31.283Z,101583.25
2017-05-26T11:46:58.808Z,101581.10
2017-05-26T11:49:26.636Z,101577.30
2017-05-26T11:51:54.198Z,101573.95
2017-05-26T11:54:21.740Z,101580.03
2017-05-26T11:56:49.302Z,101572.50
2017-05-26T11:59:16.886Z,101576.75
2017-05-26T12:01:44.477Z,101565.67
2017-05-26T12:04:12.015Z,101560.78
2017-05-26T12:06:39.611Z,101561.55
2017-05-26T12:09:07.173Z,101570.34
2017-05-26T12:11:34.707Z,101556.17
2017-05-26T12:14:02.263Z,101552.23
2017-05-26T12:16:29.780Z,101548.53
2017-05-26T12:18:57.681Z,101546.23
2017-05-26T12:21:25.214Z,101548.73
2017-05-26T12:23:52.734Z,101539.23
2017-05-26T12:26:20.287Z,101538.03
2017-05-26T12:28:47.847Z,101538.27
2017-05-26T12:31:15.414Z,101537.47
2017-05-26T12:33:43.099Z,101542.72
2017-05-26T12:36:10.604Z,101520.91
2017-05-26T12:38:38.169Z,101522.81
2017-05-26T12:41:05.727Z,101521.32
2017-05-26T12:43:33.306Z,101515.83
2017-05-26T12:46:00.852Z,101516.00
2017-05-26T12:48:28.390Z,101505.83
2017-05-26T12:50:55.962Z,101509.53
2017-05-26T12:53:23.512Z,101503.84
2017-05-26T12:55:51.116Z,101504.27
2017-05-26T12:58:18.641Z,101498.40
2017-05-26T13:00:46.221Z,101491.31
2017-05-26T13:03:13.816Z,101497.81
2017-05-26T13:05:41.367Z,101493.44
2017-05-26T13:08:08.947Z,101488.70
2017-05-26T13:10:36.551Z,101482.37
2017-05-26T13:13:04.123Z,101478.86
2017-05-26T13:15:31.678Z,101478.05
2017-05-26T13:17:59.307Z,101476.25
2017-05-26T13:20:26.904Z,101471.13
2017-05-26T13:22:54.471Z,101472.88
2017-05-26T13:25:22.106Z,101469.72
2017-05-26T13:27:49.676Z,101475.78
2017-05-26T13:30:17.342Z,101461.70
2017-05-26T13:32:44.871Z,101460.53
2017-05-26T13:35:12.415Z,101454.34
2017-05-26T13:37:40.097Z,101450.37
2017-05-26T13:40:07.619Z,101451.28
2017-05-26T13:42:35.140Z,101450.48
2017-05-26T13:45:02.700Z,101440.77
2017-05-26T13:47:30.207Z,101435.11
2017-05-26T13:49:58.102Z,101438.23
2017-05-26T13:52:25.653Z,101437.64
2017-05-26T13:54:53.217Z,101440.36
2017-05-26T13:57:20.769Z,101434.98
2017-05-26T13:59:48.316Z,101433.35
2017-05-26T14:02:15.907Z,101431.84
2017-05-26T14:04:43.451Z,101426.56
2017-05-26T14:07:10.980Z,101421.80
2017-05-26T14:09:38.662Z,101416.81
2017-05-26T14:12:06.293Z,101411.23
2017-05-26T14:14:33.906Z,101404.14
2017-05-26T14:17:01.435Z,101401.94
2017-05-26T14:19:29.012Z,101401.67
2017-05-26T14:21:56.669Z,101398.56
2017-05-26T14:24:24.215Z,101400.94
2017-05-26T14:26:51.840Z,101399.98
2017-05-26T14:29:19.356Z,101398.53
2017-05-26T14:31:46.928Z,101396.33
2017-05-26T14:34:14.449Z,101394.38
2017-05-26T14:36:42.203Z,101391.43
2017-05-26T14:39:09.817Z,101393.41
2017-05-26T14:41:37.391Z,101402.09
2017-05-26T14:44:04.975Z,101389.17
2017-05-26T14:46:32.596Z,101396.56
2017-05-26T14:49:00.231Z,101391.33
2017-05-26T14:51:27.766Z,101393.12
2017-05-26T14:53:55.385Z,101385.44
2017-05-26T14:56:22.956Z,101382.06
2017-05-26T14:58:50.497Z,101377.24
2017-05-26T15:01:18.056Z,101372.20
2017-05-26T15:03:45.593Z,101375.87
2017-05-26T15:06:13.163Z,101371.42
2017-05-26T15:08:40.689Z,101358.78
2017-05-26T15:11:08.283Z,101366.74
2017-05-26T15:13:35.851Z,101359.35
2017-05-26T15:16:03.384Z,101361.50
2017-05-26T15:18:30.985Z,101353.36
2017-05-26T15:20:58.513Z,101358.43
2017-05-26T15:23:26.064Z,101354.48
2017-05-26T15:25:53.617Z,101357.47
2017-05-26T15:28:21.149Z,101353.47
2017-05-26T15:30:48.746Z,101358.27
2017-05-26T15:33:16.280Z,101356.88
2017-05-26T15:35:43.821Z,101351.50
2017-05-26T15:38:11.376Z,101348.13
2017-05-26T15:40:38.895Z,101342.76
2017-05-26T15:43:06.451Z,101350.09
2017-05-26T15:45:33.980Z,101343.30
2017-05-26T15:48:01.553Z,101331.14
2017-05-26T15:50:29.102Z,101330.22
2017-05-26T15:52:56.634Z,101329.47
2017-05-26T15:55:24.212Z,101331.27
2017-05-26T15:57:51.737Z,101328.87
2017-05-26T16:00:19.305Z,101328.48
2017-05-26T16:02:46.832Z,101323.52
2017-05-26T16:05:14.365Z,101321.70
2017-05-26T16:07:41.923Z,101319.70
2017-05-26T16:10:09.443Z,101321.73
2017-05-26T16:12:37.006Z,101321.13
2017-05-26T16:15:04.540Z,101313.06
2017-05-26T16:17:32.074Z,101315.16
2017-05-26T16:19:59.633Z,101307.00
2017-05-26T16:22:27.191Z,101298.70
2017-05-26T16:24:54.776Z,101296.94
2017-05-26T16:27:22.316Z,101303.47
2017-05-26T16:29:49.844Z,101300.23
2017-05-26T16:32:17.412Z,101299.84
2017-05-26T16:34:44.931Z,101302.84
2017-05-26T16:37:12.506Z,101291.69
2017-05-26T16:39:40.059Z,101288.36
2017-05-26T16:42:07.591Z,101285.02
2017-05-26T16:44:35.144Z,101294.80
2017-05-26T16:47:02.684Z,101295.39
2017-05-26T16:49:30.267Z,101290.67
2017-05-26T16:51:57.825Z,101291.89
2017-05-26T16:54:25.359Z,101290.05
2017-05-26T16:56:52.918Z,101293.80
2017-05-26T16:59:20.456Z,101291.97
2017-05-26T17:01:48.083Z,101296.15
2017-05-26T17:04:15.607Z,101292.83
2017-05-26T17:06:43.188Z,101291.73
2017-05-26T17:09:10.718Z,101296.90
2017-05-26T17:11:38.327Z,101295.92
2017-05-26T17:14:05.902Z,101294.95
2017-05-26T17:16:33.457Z,101292.26
2017-05-26T17:19:01.371Z,101286.42
2017-05-26T17:21:28.899Z,101294.95
2017-05-26T17:23:56.444Z,101295.31
2017-05-26T17:26:24.008Z,101290.28
2017-05-26T17:28:51.569Z,101292.14
2017-05-26T17:31:19.142Z,101294.37
2017-05-26T17:33:46.673Z,101294.87
2017-05-26T17:36:14.195Z,101297.84
2017-05-26T17:38:42.067Z,101296.12
2017-05-26T17:41:09.636Z,101295.32
2017-05-26T17:43:39.225Z,101291.10
2017-05-26T17:46:06.837Z,101295.80
2017-05-26T17:48:36.593Z,101285.58
2017-05-26T17:51:04.767Z,101285.95
2017-05-26T17:53:33.699Z,101294.84
2017-05-26T17:56:01.478Z,101288.00
2017-05-26T17:58:31.097Z,101291.42
2017-05-26T18:00:58.913Z,101289.30
2017-05-26T18:03:26.501Z,101294.02
2017-05-26T18:05:54.046Z,101298.88
2017-05-26T18:08:21.632Z,101294.75
2017-05-26T18:10:49.296Z,101296.92
2017-05-26T18:13:16.836Z,101288.53
2017-05-26T18:15:44.428Z,101290.41
2017-05-26T18:18:11.972Z,101287.00
2017-05-26T18:20:39.496Z,101291.47
2017-05-26T18:23:07.056Z,101291.09
2017-05-26T18:25:34.588Z,101292.33
2017-05-26T18:28:02.165Z,101300.53
2017-05-26T18:30:29.697Z,101298.56
2017-05-26T18:32:57.243Z,101299.26
2017-05-26T18:35:24.821Z,101299.08
2017-05-26T18:37:52.360Z,101298.79
2017-05-26T18:40:19.934Z,101303.09
2017-05-26T18:42:47.459Z,101296.86
2017-05-26T18:45:15.032Z,101303.83
2017-05-26T18:47:42.553Z,101301.73
2017-05-26T18:50:10.127Z,101299.50
2017-05-26T18:52:37.686Z,101297.75
2017-05-26T18:55:05.212Z,101303.01
2017-05-26T18:57:32.799Z,101301.41
2017-05-26T19:00:00.350Z,101299.91
2017-05-26T19:02:27.869Z,101302.39
2017-05-26T19:04:55.456Z,101304.06
2017-05-26T19:07:23.030Z,101303.59
2017-05-26T19:09:50.631Z,101303.31
2017-05-26T19:12:18.251Z,101302.03
2017-05-26T19:14:45.853Z,101306.58
2017-05-26T19:17:13.415Z,101305.45
2017-05-26T19:19:41.055Z,101309.45
2017-05-26T19:22:08.661Z,101315.88
2017-05-26T19:24:36.221Z,101312.88
2017-05-26T19:27:03.820Z,101320.45
2017-05-26T19:29:31.389Z,101322.88
2017-05-26T19:31:58.916Z,101319.76
2017-05-26T19:34:26.502Z,101323.88
2017-05-26T19:36:54.038Z,101335.56
2017-05-26T19:39:21.600Z,101336.77
2017-05-26T19:41:49.150Z,101337.47
2017-05-26T19:44:16.736Z,101338.53
2017-05-26T19:46:44.276Z,101340.87
2017-05-26T19:49:11.805Z,101345.27
2017-05-26T19:51:39.458Z,101349.61
2017-05-26T19:54:07.017Z,101351.72
2017-05-26T19:56:34.600Z,101355.52
2017-05-26T19:59:02.212Z,101349.83
2017-05-26T20:01:29.839Z,101355.95
2017-05-26T20:03:57.427Z,101361.03
2017-05-26T20:06:24.979Z,101361.52
2017-05-26T20:08:52.551Z,101371.39
2017-05-26T20:11:20.185Z,101364.58
2017-05-26T20:13:47.734Z,101364.67
2017-05-26T20:16:15.343Z,101364.98
2017-05-26T20:18:42.910Z,101369.53
2017-05-26T20:21:10.436Z,101370.73
2017-05-26T20:23:38.140Z,101382.42
2017-05-26T20:26:05.725Z,101376.73
2017-05-26T20:28:34.555Z,101373.47
2017-05-26T20:31:02.128Z,101371.02
2017-05-26T20:33:29.693Z,101369.58
2017-05-26T20:35:57.263Z,101367.15
2017-05-26T20:38:24.804Z,101367.49
2017-05-26T20:40:52.377Z,101372.59
2017-05-26T20:43:19.934Z,101373.70
2017-05-26T20:45:47.472Z,101372.05
2017-05-26T20:48:15.055Z,101373.68
2017-05-26T20:50:42.604Z,101372.95
2017-05-26T20:53:10.183Z,101372.07
2017-05-26T20:55:37.779Z,101370.46
2017-05-26T20:58:05.340Z,101368.89
2017-05-26T21:00:32.944Z,101370.36
2017-05-26T21:03:00.536Z,101374.91
2017-05-26T21:05:29.541Z,101381.11
2017-05-26T21:07:57.140Z,101380.03
2017-05-26T21:10:25.612Z,101376.75
2017-05-26T21:12:53.194Z,101376.20
2017-05-26T21:15:20.743Z,101383.83
2017-05-26T21:17:48.345Z,101377.91
2017-05-26T21:20:15.904Z,101380.03
2017-05-26T21:22:43.463Z,101379.29
2017-05-26T21:25:11.021Z,101384.54
2017-05-26T21:27:38.979Z,101382.35
2017-05-26T21:30:06.609Z,101377.90
2017-05-26T21:32:34.175Z,101388.41
2017-05-26T21:35:01.740Z,101387.97
2017-05-26T21:37:29.267Z,101386.08
2017-05-26T21:39:56.875Z,101382.10
2017-05-26T21:42:24.416Z,101387.14
2017-05-26T21:44:52.038Z,101390.38
2017-05-26T21:47:19.572Z,101385.61
2017-05-26T21:49:47.153Z,101385.17
2017-05-26T21:52:14.776Z,101387.66
2017-05-26T21:54:42.305Z,101391.70
2017-05-26T21:57:09.904Z,101391.03
2017-05-26T21:59:37.426Z,101392.50
2017-05-26T22:02:05.275Z,101390.19
2017-05-26T22:04:32.871Z,101388.94
2017-05-26T22:07:00.452Z,101387.12
2017-05-26T22:09:28.007Z,101390.83
2017-05-26T22:11:55.543Z,101390.83
2017-05-26T22:14:23.099Z,101386.57
2017-05-26T22:16:50.674Z,101396.46
2017-05-26T22:19:18.484Z,101388.97
2017-05-26T22:21:49.692Z,101391.02
2017-05-26T22:24:17.257Z,101396.48
2017-05-26T22:26:45.090Z,101388.83
2017-05-26T22:29:12.617Z,101393.47
2017-05-26T22:31:43.507Z,101390.27
2017-05-26T22:34:11.131Z,101387.55
2017-05-26T22:36:38.685Z,101383.92
2017-05-26T22:39:06.256Z,101384.88
2017-05-26T22:41:33.799Z,101383.52
2017-05-26T22:44:01.368Z,101380.24
2017-05-26T22:46:28.893Z,101376.45
2017-05-26T22:48:56.537Z,101375.11
2017-05-26T22:51:24.189Z,101378.14
2017-05-26T22:53:51.787Z,101374.66
2017-05-26T22:56:19.325Z,101372.58
2017-05-26T22:58:46.885Z,101368.41
2017-05-26T23:01:14.502Z,101364.69
2017-05-26T23:03:42.036Z,101362.41
2017-05-26T23:06:09.772Z,101366.39
2017-05-26T23:08:37.312Z,101360.18
2017-05-26T23:11:05.059Z,101359.82
2017-05-26T23:13:32.579Z,101354.04
2017-05-26T23:16:00.116Z,101358.16
2017-05-26T23:18:27.664Z,101352.14
2017-05-26T23:20:55.203Z,101354.75
2017-05-26T23:23:22.760Z,101349.42
2017-05-26T23:25:50.296Z,101344.78
2017-05-26T23:28:17.970Z,101340.66
2017-05-26T23:30:45.568Z,101339.45
2017-05-26T23:33:13.141Z,101335.87
2017-05-26T23:35:40.715Z,101335.97
2017-05-26T23:38:08.315Z,101336.39
2017-05-26T23:40:35.892Z,101335.31
2017-05-26T23:43:03.484Z,101334.87
2017-05-26T23:45:31.083Z,101337.68
2017-05-26T23:47:58.673Z,101337.28
2017-05-26T23:50:26.569Z,101338.33
2017-05-26T23:52:54.108Z,101335.52
2017-05-26T23:55:21.635Z,101329.19
2017-05-26T23:57:49.211Z,101324.36
